Time;durP1;ratioP1;P1;durP2;ratioP2;P2;SDS_P1;SDS_P2;PMS_P1;PMS_P2;Temp;Humidity;BMP_temperature;BMP_pressure;BME280_temperature;BME280_humidity;BME280_pressure;Samples;Min_cycle;Max_cycle;Signal;HPM_P1;HPM_P2
2021/01/10 00:00:47;;;;;;;0.90;0.87;;;;;;;3.63;100.00;101800.22;5086179;28;20462;-63
2021/01/10 00:03:14;;;;;;;0.50;0.40;;;;;;;3.59;100.00;101796.34;5085892;28;20477;-63
2021/01/10 00:05:42;;;;;;;6.43;0.83;;;;;;;3.58;100.00;101802.72;5086371;28;20437;-63
2021/01/10 00:08:08;;;;;;;0.60;0.40;;;;;;;3.57;100.00;101803.78;5085782;28;20449;-63
2021/01/10 00:10:34;;;;;;;0.70;0.70;;;;;;;3.59;100.00;101803.56;5084678;28;20502;-63
2021/01/10 00:13:03;;;;;;;1.90;0.93;;;;;;;3.58;100.00;101805.41;5086270;28;20445;-63
2021/01/10 00:15:30;;;;;;;2.63;0.50;;;;;;;3.55;100.00;101800.53;5086150;28;20436;-64
2021/01/10 00:17:57;;;;;;;2.10;0.97;;;;;;;3.57;100.00;101803.78;5087404;28;20445;-63
2021/01/10 00:20:24;;;;;;;0.90;0.53;;;;;;;3.57;100.00;101802.97;5086180;28;20986;-63
2021/01/10 00:22:51;;;;;;;8.80;2.00;;;;;;;3.53;100.00;101806.06;5087234;28;20538;-63
2021/01/10 00:25:17;;;;;;;0.80;0.50;;;;;;;3.52;100.00;101806.31;5086582;28;20448;-62
2021/01/10 00:27:43;;;;;;;0.70;0.70;;;;;;;3.52;100.00;101809.81;5086000;28;20444;-63
2021/01/10 00:30:12;;;;;;;0.87;0.50;;;;;;;3.55;100.00;101808.56;5084630;28;20461;-63
2021/01/10 00:32:38;;;;;;;1.27;1.23;;;;;;;3.53;100.00;101816.78;5086054;28;20437;-63
2021/01/10 00:35:07;;;;;;;0.40;0.37;;;;;;;3.54;100.00;101815.78;5084593;28;20461;-64
2021/01/10 00:37:33;;;;;;;0.50;0.40;;;;;;;3.55;100.00;101813.91;5084495;28;20436;-64
2021/01/10 00:39:59;;;;;;;0.87;0.87;;;;;;;3.54;100.00;101818.44;5085172;28;20468;-63
2021/01/10 00:42:26;;;;;;;0.40;0.40;;;;;;;3.57;100.00;101819.84;5084942;28;20449;-64
2021/01/10 00:44:52;;;;;;;0.50;0.43;;;;;;;3.59;100.00;101822.31;5084717;28;20537;-63
2021/01/10 00:47:18;;;;;;;0.77;0.77;;;;;;;3.62;100.00;101819.19;5084788;28;20437;-64
2021/01/10 00:49:45;;;;;;;0.93;0.93;;;;;;;3.60;100.00;101824.78;5083994;28;20453;-63
2021/01/10 00:52:13;;;;;;;4.07;3.47;;;;;;;3.59;100.00;101817.78;5084698;28;20441;-63
2021/01/10 00:54:40;;;;;;;1.47;1.37;;;;;;;3.59;100.00;101825.81;5084798;28;20516;-63
2021/01/10 00:57:06;;;;;;;0.70;0.70;;;;;;;3.61;100.00;101822.91;5084109;28;20467;-63
2021/01/10 00:59:32;;;;;;;3.23;2.47;;;;;;;3.61;100.00;101831.75;5083895;28;20841;-63
2021/01/10 01:01:58;;;;;;;2.93;0.70;;;;;;;3.52;100.00;101827.75;5084551;28;20437;-63
2021/01/10 01:04:25;;;;;;;0.40;0.30;;;;;;;3.53;100.00;101834.72;5086867;28;20484;-64
2021/01/10 01:06:51;;;;;;;0.40;0.30;;;;;;;3.52;100.00;101833.09;5088107;28;20445;-64
2021/01/10 01:09:18;;;;;;;1.43;1.33;;;;;;;3.49;100.00;101841.56;5086061;28;20499;-63
2021/01/10 01:11:44;;;;;;;1.67;1.33;;;;;;;3.49;99.88;101841.56;5086018;28;20440;-63
2021/01/10 01:14:12;;;;;;;0.70;0.40;;;;;;;3.41;100.00;101836.50;5085468;28;20445;-63
2021/01/10 01:16:40;;;;;;;0.60;0.60;;;;;;;3.43;100.00;101837.94;5087102;28;20939;-63
2021/01/10 01:19:06;;;;;;;11.70;1.40;;;;;;;3.49;100.00;101845.06;5089351;28;20491;-63
2021/01/10 01:21:33;;;;;;;1.70;0.80;;;;;;;3.52;100.00;101839.28;5089366;28;20448;-63
2021/01/10 01:23:59;;;;;;;0.57;0.57;;;;;;;3.56;99.98;101841.50;5086587;28;20547;-63
2021/01/10 01:26:26;;;;;;;0.40;0.30;;;;;;;3.56;100.00;101841.50;5085090;28;20487;-63
2021/01/10 01:28:53;;;;;;;10.50;1.27;;;;;;;3.55;99.76;101846.06;5086367;28;20463;-63
2021/01/10 01:31:21;;;;;;;1.40;1.30;;;;;;;3.49;99.72;101853.09;5087511;28;20464;-63
2021/01/10 01:33:49;;;;;;;0.80;0.80;;;;;;;3.49;99.70;101853.09;5088008;28;20441;-64
2021/01/10 01:36:16;;;;;;;1.53;1.00;;;;;;;3.50;99.92;101852.09;5087630;28;20582;-64
2021/01/10 01:38:43;;;;;;;0.40;0.30;;;;;;;3.48;100.00;101853.34;5087871;28;20961;-64
2021/01/10 01:41:10;;;;;;;0.70;0.50;;;;;;;3.54;100.00;101855.09;5088071;28;20809;-63
2021/01/10 01:43:38;;;;;;;1.23;1.07;;;;;;;3.43;100.00;101853.19;5087978;28;20485;-64
2021/01/10 01:46:06;;;;;;;1.60;1.03;;;;;;;3.47;100.00;101868.59;5088757;28;20949;-64
2021/01/10 01:48:32;;;;;;;0.50;0.50;;;;;;;3.55;100.00;101854.09;5087897;28;20445;-63
2021/01/10 01:50:59;;;;;;;0.40;0.30;;;;;;;3.53;100.00;101854.28;5087856;28;21014;-64
2021/01/10 01:53:26;;;;;;;0.40;0.30;;;;;;;3.55;99.89;101862.13;5087928;28;20523;-63
2021/01/10 01:55:53;;;;;;;1.30;0.60;;;;;;;3.52;99.99;101855.34;5087171;28;20950;-63
2021/01/10 01:58:20;;;;;;;0.60;0.30;;;;;;;3.43;99.72;101858.53;5085613;28;20437;-62
2021/01/10 02:00:47;;;;;;;6.50;2.97;;;;;;;3.48;100.00;101858.69;5083234;28;20456;-63
2021/01/10 02:03:20;;;;;;;4.33;1.53;;;;;;;3.52;100.00;101854.53;5083370;28;20481;-64
2021/01/10 02:05:54;;;;;;;0.40;0.40;;;;;;;3.55;99.74;101864.81;5085168;28;20429;-64
2021/01/10 02:08:20;;;;;;;0.93;0.73;;;;;;;3.55;99.72;101859.44;5085914;28;20437;-64
2021/01/10 02:10:47;;;;;;;2.10;0.80;;;;;;;3.51;99.97;101858.25;5085486;28;20506;-63
2021/01/10 02:13:16;;;;;;;0.50;0.47;;;;;;;3.48;99.91;101870.22;5085705;28;20795;-63
2021/01/10 02:15:45;;;;;;;1.83;0.67;;;;;;;3.49;100.00;101863.81;5086883;28;20474;-64
2021/01/10 02:18:14;;;;;;;0.50;0.30;;;;;;;3.49;99.86;101868.34;5086158;28;20475;-64
2021/01/10 02:20:41;;;;;;;0.60;0.60;;;;;;;3.45;99.84;101862.66;5086135;28;20453;-64
2021/01/10 02:23:11;;;;;;;0.40;0.30;;;;;;;3.47;99.46;101865.91;5086729;28;20515;-62
2021/01/10 02:25:41;;;;;;;0.63;0.63;;;;;;;3.46;99.74;101860.78;5086904;28;20444;-63
2021/01/10 02:28:09;;;;;;;4.60;1.07;;;;;;;3.52;99.74;101862.56;5090066;28;20430;-64
2021/01/10 02:30:39;;;;;;;3.77;2.60;;;;;;;3.48;99.51;101862.19;5089377;28;20476;-64
2021/01/10 02:33:12;;;;;;;2.50;1.10;;;;;;;3.45;99.27;101862.66;5088508;28;20428;-64
2021/01/10 02:35:40;;;;;;;0.50;0.50;;;;;;;3.44;99.49;101868.19;5087660;28;20440;-63
2021/01/10 02:38:30;;;;;;;1.07;0.97;;;;;;;3.47;99.29;101865.09;5088319;28;20452;-64
2021/01/10 02:41:12;;;;;;;2.40;2.20;;;;;;;3.38;99.34;101867.25;5087579;28;20856;-64
2021/01/10 02:43:44;;;;;;;0.80;0.80;;;;;;;3.39;99.04;101873.41;5076760;28;20471;-64
2021/01/10 02:46:11;;;;;;;0.50;0.50;;;;;;;3.39;99.08;101870.72;5075828;28;20480;-66
2021/01/10 02:48:37;;;;;;;2.07;0.60;;;;;;;3.31;98.71;101865.66;5079046;28;20437;-65
2021/01/10 02:51:04;;;;;;;0.50;0.40;;;;;;;3.25;98.85;101865.50;5079327;28;20452;-64
2021/01/10 02:53:30;;;;;;;1.73;1.37;;;;;;;3.26;98.50;101869.00;5078849;28;20449;-65
2021/01/10 02:55:56;;;;;;;0.60;0.53;;;;;;;3.27;99.06;101866.09;5078625;28;20460;-65
2021/01/10 02:58:27;;;;;;;0.93;0.70;;;;;;;3.27;98.63;101874.13;5078392;28;20444;-64
2021/01/10 03:00:58;;;;;;;0.40;0.30;;;;;;;3.32;98.49;101867.28;5079431;28;20441;-64
2021/01/10 03:03:28;;;;;;;2.67;2.57;;;;;;;3.32;98.18;101872.63;5079202;28;20495;-64
2021/01/10 03:05:55;;;;;;;2.10;1.13;;;;;;;3.33;97.97;101869.75;5078464;28;20444;-64
2021/01/10 03:08:23;;;;;;;0.40;0.30;;;;;;;3.36;97.49;101869.31;5078396;28;20441;-64
2021/01/10 03:10:50;;;;;;;0.40;0.30;;;;;;;3.28;97.35;101875.78;5077759;28;20564;-64
2021/01/10 03:13:17;;;;;;;0.60;0.50;;;;;;;3.34;97.45;101879.44;5077966;28;20447;-65
2021/01/10 03:15:45;;;;;;;1.70;1.60;;;;;;;3.33;97.23;101875.13;5077834;28;20491;-65
2021/01/10 03:18:17;;;;;;;0.40;0.30;;;;;;;3.33;96.55;101876.97;5077862;28;20946;-65
2021/01/10 03:20:44;;;;;;;1.57;0.60;;;;;;;3.32;96.58;101880.69;5078057;28;20489;-63
2021/01/10 03:23:10;;;;;;;2.00;1.83;;;;;;;3.29;96.16;101889.97;5078095;28;20533;-65
2021/01/10 03:25:36;;;;;;;0.40;0.30;;;;;;;3.11;95.29;101881.91;5078240;28;20818;-64
2021/01/10 03:28:03;;;;;;;0.47;0.40;;;;;;;3.14;95.59;101887.63;5078628;28;20450;-65
2021/01/10 03:30:29;;;;;;;2.70;0.73;;;;;;;3.18;95.41;101888.00;5078097;28;20982;-64
2021/01/10 03:32:56;;;;;;;0.70;0.50;;;;;;;3.17;95.93;101884.53;5078206;28;20475;-64
2021/01/10 03:35:22;;;;;;;2.97;0.70;;;;;;;3.18;96.33;101879.97;5078305;28;20484;-65
2021/01/10 03:37:49;;;;;;;0.57;0.57;;;;;;;3.21;96.27;101888.41;5077880;28;20970;-64
2021/01/10 03:40:16;;;;;;;0.40;0.30;;;;;;;3.22;96.12;101884.69;5077669;28;20465;-64
2021/01/10 03:42:42;;;;;;;0.50;0.40;;;;;;;3.22;96.14;101890.03;5077710;28;20477;-64
2021/01/10 03:45:10;;;;;;;2.00;1.90;;;;;;;3.16;95.71;101890.91;5078036;28;20481;-64
2021/01/10 03:47:37;;;;;;;0.70;0.70;;;;;;;3.22;95.86;101900.75;5078016;28;20483;-65
2021/01/10 03:50:05;;;;;;;0.40;0.30;;;;;;;3.22;95.72;101895.38;5080248;28;20452;-64
2021/01/10 03:52:32;;;;;;;0.50;0.40;;;;;;;3.13;94.50;101885.19;5079230;28;20446;-64
2021/01/10 03:54:58;;;;;;;0.40;0.30;;;;;;;3.17;94.77;101889.06;5079081;28;20433;-65
2021/01/10 03:57:24;;;;;;;2.20;0.93;;;;;;;3.21;94.87;101887.59;5079038;28;20817;-64
2021/01/10 03:59:50;;;;;;;0.40;0.30;;;;;;;3.19;94.52;101890.50;5078731;28;20515;-64
2021/01/10 04:02:16;;;;;;;3.60;1.33;;;;;;;3.18;94.18;101888.81;5078253;28;20961;-65
2021/01/10 04:04:43;;;;;;;0.40;0.20;;;;;;;3.16;94.76;101890.91;5078149;28;20481;-64
2021/01/10 04:07:10;;;;;;;0.50;0.37;;;;;;;3.19;94.52;101889.69;5079135;28;20438;-64
2021/01/10 04:09:36;;;;;;;3.80;0.77;;;;;;;3.18;93.91;101882.66;5100895;22;20875;-67
2021/01/10 04:12:03;;;;;;;1.57;1.00;;;;;;;3.17;93.99;101881.84;5073767;28;20443;-67
2021/01/10 04:14:29;;;;;;;2.23;0.70;;;;;;;3.18;93.84;101879.97;5073744;28;20445;-67
2021/01/10 04:16:55;;;;;;;1.50;1.40;;;;;;;3.15;93.17;101883.94;5073198;28;20452;-67
2021/01/10 04:19:21;;;;;;;1.63;1.13;;;;;;;3.16;92.74;101872.19;5073319;28;20511;-65
2021/01/10 04:21:48;;;;;;;8.33;1.17;;;;;;;3.12;92.62;101868.31;5073295;28;21035;-67
2021/01/10 04:24:15;;;;;;;0.40;0.30;;;;;;;3.17;92.57;101864.97;5073101;28;20476;-67
2021/01/10 04:26:46;;;;;;;2.70;0.83;;;;;;;3.19;92.43;101869.06;5073492;28;20445;-67
2021/01/10 04:29:13;;;;;;;0.40;0.30;;;;;;;3.13;92.32;101864.56;5073078;28;20500;-68
2021/01/10 04:31:39;;;;;;;1.50;1.43;;;;;;;3.11;92.47;101866.66;5073425;28;20441;-67
2021/01/10 04:34:06;;;;;;;1.63;0.50;;;;;;;3.14;92.35;101862.72;5073087;28;20444;-67
2021/01/10 04:36:32;;;;;;;0.40;0.30;;;;;;;3.18;92.55;101866.59;5073039;28;20441;-66
2021/01/10 04:38:58;;;;;;;2.00;0.67;;;;;;;3.15;92.21;101862.53;5072995;28;20476;-67
2021/01/10 04:41:26;;;;;;;0.40;0.30;;;;;;;3.15;91.57;101859.84;5073544;28;20449;-67
2021/01/10 04:43:53;;;;;;;0.40;0.30;;;;;;;3.13;91.42;101859.22;5073230;28;20489;-66
2021/01/10 04:46:21;;;;;;;3.97;0.90;;;;;;;3.09;91.81;101859.88;5073285;28;20437;-67
2021/01/10 04:48:49;;;;;;;2.67;0.50;;;;;;;3.08;91.67;101853.72;5073277;28;20437;-66
2021/01/10 04:51:15;;;;;;;0.47;0.47;;;;;;;3.05;92.25;101856.81;5071965;28;21004;-67
2021/01/10 04:53:45;;;;;;;1.73;1.63;;;;;;;3.06;92.16;101857.66;5073200;28;20533;-67
2021/01/10 04:56:14;;;;;;;0.40;0.30;;;;;;;3.06;92.85;101855.81;5072841;28;20448;-67
2021/01/10 04:58:42;;;;;;;0.43;0.33;;;;;;;3.04;93.15;101860.53;5073101;28;20473;-67
2021/01/10 05:01:16;;;;;;;0.60;0.50;;;;;;;3.06;93.13;101861.16;5072958;28;20487;-67
2021/01/10 05:03:43;;;;;;;0.40;0.30;;;;;;;3.05;93.72;101864.84;5073083;28;20523;-66
2021/01/10 05:06:09;;;;;;;0.40;0.30;;;;;;;3.06;93.58;101866.50;5073042;28;20473;-66
2021/01/10 05:08:36;;;;;;;0.40;0.30;;;;;;;3.07;94.36;101865.47;5073053;28;20841;-67
2021/01/10 05:11:02;;;;;;;2.27;0.97;;;;;;;3.09;94.23;101867.91;5072698;28;20518;-67
2021/01/10 05:13:28;;;;;;;1.73;1.10;;;;;;;3.07;94.19;101860.13;5072685;28;20954;-67
2021/01/10 05:15:56;;;;;;;1.17;1.03;;;;;;;3.06;94.04;101860.34;5072887;28;20506;-67
2021/01/10 05:18:22;;;;;;;1.17;0.87;;;;;;;3.06;93.23;101855.81;5072921;28;20450;-68
2021/01/10 05:20:53;;;;;;;0.50;0.50;;;;;;;3.09;93.04;101857.22;5072897;28;20470;-67
2021/01/10 05:23:21;;;;;;;3.60;1.03;;;;;;;3.10;93.19;101859.69;5072763;28;20472;-67
2021/01/10 05:25:47;;;;;;;3.03;1.07;;;;;;;3.07;93.68;101864.66;5072549;28;20811;-67
2021/01/10 05:28:13;;;;;;;1.43;0.60;;;;;;;3.03;93.13;101854.38;5072828;28;20469;-67
2021/01/10 05:30:39;;;;;;;0.40;0.30;;;;;;;2.99;92.93;101855.03;5072771;28;20493;-67
2021/01/10 05:33:07;;;;;;;0.40;0.30;;;;;;;3.04;93.17;101855.19;5072514;28;20480;-66
2021/01/10 05:35:48;;;;;;;1.00;0.57;;;;;;;3.02;93.68;101852.75;5072877;28;20437;-68
2021/01/10 05:38:26;;;;;;;0.40;0.30;;;;;;;3.04;93.44;101852.50;5072740;28;20464;-68
2021/01/10 05:40:54;;;;;;;0.50;0.40;;;;;;;3.00;92.31;101859.34;5072714;28;20467;-67
2021/01/10 05:43:20;;;;;;;1.00;0.70;;;;;;;2.96;92.74;101853.59;5072619;28;20521;-68
2021/01/10 05:45:47;;;;;;;0.50;0.50;;;;;;;2.93;92.49;101855.91;5073007;28;20452;-67
2021/01/10 05:48:16;;;;;;;0.40;0.40;;;;;;;2.96;92.78;101850.09;5072931;28;20498;-68
2021/01/10 05:50:45;;;;;;;3.30;1.17;;;;;;;2.99;92.52;101847.00;5072370;28;20461;-66
2021/01/10 05:53:15;;;;;;;0.40;0.30;;;;;;;2.97;92.16;101854.44;5072325;28;20949;-68
2021/01/10 05:55:54;;;;;;;1.30;1.13;;;;;;;2.90;91.39;101849.13;5072653;28;20433;-68
2021/01/10 05:58:23;;;;;;;0.50;0.47;;;;;;;2.89;91.67;101857.38;5072293;28;20478;-67
2021/01/10 06:00:51;;;;;;;0.40;0.30;;;;;;;2.84;91.80;101857.22;5072257;28;20829;-67
2021/01/10 06:03:20;;;;;;;1.73;0.80;;;;;;;2.80;91.36;101851.50;5074722;28;20940;-68
2021/01/10 06:05:59;;;;;;;0.80;0.60;;;;;;;2.73;91.28;101862.22;5076430;28;20444;-66
2021/01/10 06:08:32;;;;;;;1.07;0.50;;;;;;;2.70;91.15;101865.34;5075847;28;20530;-67
2021/01/10 06:11:18;;;;;;;0.50;0.50;;;;;;;2.65;90.84;101861.66;5075673;28;20533;-68
2021/01/10 06:13:49;;;;;;;0.60;0.50;;;;;;;2.57;90.41;101862.78;5076040;28;20483;-68
2021/01/10 06:16:16;;;;;;;0.70;0.53;;;;;;;2.50;90.96;101859.31;5076039;28;20815;-67
2021/01/10 06:18:46;;;;;;;0.40;0.30;;;;;;;2.49;91.28;101863.84;5076007;28;20491;-68
2021/01/10 06:21:20;;;;;;;0.60;0.60;;;;;;;2.50;91.34;101875.34;5074918;28;21022;-70
2021/01/10 06:23:49;;;;;;;0.50;0.50;;;;;;;2.49;90.95;101868.38;5075338;28;20525;-68
2021/01/10 06:26:18;;;;;;;1.60;1.23;;;;;;;2.45;91.36;101872.50;5075785;28;20476;-68
2021/01/10 06:28:59;;;;;;;0.50;0.50;;;;;;;2.46;90.74;101879.50;5075218;28;20484;-68
2021/01/10 06:31:31;;;;;;;1.43;1.33;;;;;;;2.47;91.20;101875.78;5055453;28;20480;-68
2021/01/10 06:34:01;;;;;;;2.73;2.60;;;;;;;2.42;91.36;101875.59;5056948;28;20450;-68
2021/01/10 06:36:30;;;;;;;0.40;0.30;;;;;;;2.41;91.22;101877.47;5075453;28;20453;-67
2021/01/10 06:39:06;;;;;;;0.50;0.40;;;;;;;2.34;91.77;101874.00;5075508;28;20444;-70
2021/01/10 06:42:12;;;;;;;0.73;0.73;;;;;;;2.37;91.68;101876.25;5075541;28;20441;-68
2021/01/10 06:44:40;;;;;;;0.40;0.30;;;;;;;2.38;91.40;101879.75;5075090;28;21048;-67
2021/01/10 06:47:06;;;;;;;0.70;0.40;;;;;;;2.34;91.21;101884.69;5075412;28;20469;-67
2021/01/10 06:49:35;;;;;;;0.50;0.40;;;;;;;2.28;90.96;101873.00;5075227;28;20496;-67
2021/01/10 06:52:05;;;;;;;0.40;0.30;;;;;;;2.21;90.81;101874.06;5074999;28;20444;-66
2021/01/10 06:54:39;;;;;;;0.50;0.50;;;;;;;2.19;91.55;101874.28;5074722;28;20438;-67
2021/01/10 06:57:06;;;;;;;0.40;0.30;;;;;;;2.14;92.72;101879.47;5075327;28;20432;-66
2021/01/10 07:00:10;;;;;;;8.53;1.07;;;;;;;2.07;92.35;101884.00;5074531;28;20469;-67
2021/01/10 07:03:05;;;;;;;0.40;0.30;;;;;;;2.14;93.37;101892.00;5074835;28;20940;-67
2021/01/10 07:06:01;;;;;;;1.50;0.53;;;;;;;2.11;93.85;101893.22;5054955;28;20478;-67
2021/01/10 07:08:31;;;;;;;0.40;0.30;;;;;;;2.10;94.17;101891.59;5061321;28;20479;-66
2021/01/10 07:11:17;;;;;;;0.40;0.30;;;;;;;2.15;94.45;101889.09;5073715;28;20503;-67
2021/01/10 07:13:43;;;;;;;3.93;0.53;;;;;;;2.23;94.53;101901.41;5072345;28;20896;-66
2021/01/10 07:16:20;;;;;;;0.40;0.30;;;;;;;2.25;94.70;101900.16;5073683;28;20449;-67
2021/01/10 07:18:50;;;;;;;0.40;0.30;;;;;;;2.30;94.86;101899.50;5073823;28;20477;-67
2021/01/10 07:21:30;;;;;;;3.53;0.87;;;;;;;2.28;94.28;101901.59;5073169;28;21012;-67
2021/01/10 07:24:35;;;;;;;1.23;0.80;;;;;;;2.27;94.32;101905.31;5073006;28;20586;-68
2021/01/10 07:27:03;;;;;;;0.50;0.40;;;;;;;2.25;93.14;101910.84;5053275;28;20453;-67
2021/01/10 07:29:30;;;;;;;0.70;0.70;;;;;;;2.25;91.96;101902.81;5073560;28;20466;-67
2021/01/10 07:31:57;;;;;;;0.67;0.50;;;;;;;2.20;91.05;101909.84;5073600;28;20506;-67
2021/01/10 07:34:24;;;;;;;0.40;0.30;;;;;;;2.21;90.86;101909.66;5073222;28;20468;-67
2021/01/10 07:36:53;;;;;;;0.70;0.70;;;;;;;2.16;90.80;101914.78;5073247;28;20981;-67
2021/01/10 07:39:22;;;;;;;0.40;0.30;;;;;;;2.15;89.89;101915.84;5073232;28;20465;-67
2021/01/10 07:41:49;;;;;;;0.73;0.50;;;;;;;2.11;90.78;101927.16;5073129;28;20473;-66
2021/01/10 07:44:17;;;;;;;0.93;0.40;;;;;;;2.17;90.39;101927.16;5072962;28;20481;-67
2021/01/10 07:47:02;;;;;;;0.43;0.40;;;;;;;2.19;90.50;101929.59;5073120;28;20498;-67
2021/01/10 07:49:48;;;;;;;1.57;0.63;;;;;;;2.25;90.74;101928.75;5073048;28;20549;-67
2021/01/10 07:52:16;;;;;;;2.60;0.67;;;;;;;2.27;91.77;101930.19;5073348;28;20432;-69
2021/01/10 07:54:53;;;;;;;0.83;0.83;;;;;;;2.32;91.34;101931.41;5068628;28;20437;-69
2021/01/10 07:57:27;;;;;;;0.40;0.40;;;;;;;2.34;90.80;101930.13;5052977;28;20980;-68
2021/01/10 08:00:11;;;;;;;2.40;0.93;;;;;;;2.32;91.65;101934.06;5061512;28;20498;-66
2021/01/10 08:02:52;;;;;;;1.57;1.00;;;;;;;2.34;91.50;101940.84;5072931;28;20881;-68
2021/01/10 08:05:19;;;;;;;0.43;0.37;;;;;;;2.30;91.39;101949.50;5072703;28;20879;-66
2021/01/10 08:07:51;;;;;;;1.27;1.17;;;;;;;2.30;91.15;101950.31;5072944;28;20945;-67
2021/01/10 08:10:18;;;;;;;0.40;0.30;;;;;;;2.25;90.48;101947.44;5050664;28;624323;-68
2021/01/10 08:12:44;;;;;;;0.67;0.67;;;;;;;2.21;90.03;101949.75;5073087;28;20729;-67
2021/01/10 08:15:12;;;;;;;0.50;0.40;;;;;;;2.17;90.69;101950.34;5073304;28;20446;-66
2021/01/10 08:17:39;;;;;;;0.50;0.50;;;;;;;2.08;90.75;101960.50;5073392;28;20451;-66
2021/01/10 08:20:06;;;;;;;0.73;0.67;;;;;;;2.09;91.42;101962.13;5073014;28;20465;-68
2021/01/10 08:22:33;;;;;;;0.60;0.50;;;;;;;2.14;91.34;101962.31;5073353;28;20483;-67
2021/01/10 08:25:00;;;;;;;0.40;0.30;;;;;;;2.20;90.90;101971.31;5073389;28;20517;-67
2021/01/10 08:27:27;;;;;;;0.40;0.30;;;;;;;2.23;90.57;101969.06;5073300;28;20447;-68
2021/01/10 08:29:54;;;;;;;0.50;0.40;;;;;;;2.18;90.94;101968.88;5073536;28;20535;-67
2021/01/10 08:32:21;;;;;;;0.40;0.30;;;;;;;2.13;90.55;101966.03;5073561;28;20482;-66
2021/01/10 08:34:48;;;;;;;0.40;0.30;;;;;;;2.10;90.97;101961.09;5073200;28;20819;-67
2021/01/10 08:37:19;;;;;;;0.40;0.30;;;;;;;2.04;91.60;101969.94;5073378;28;20555;-67
2021/01/10 08:39:56;;;;;;;0.50;0.40;;;;;;;2.04;90.93;101969.94;5073073;28;20549;-67
2021/01/10 08:42:23;;;;;;;0.40;0.30;;;;;;;1.93;89.89;101975.94;5073357;28;20488;-67
2021/01/10 08:44:49;;;;;;;0.77;0.33;;;;;;;1.89;90.50;101980.88;5072655;28;20485;-67
2021/01/10 08:47:15;;;;;;;0.60;0.60;;;;;;;1.91;90.30;101973.47;5073326;28;20451;-66
2021/01/10 08:49:42;;;;;;;0.40;0.30;;;;;;;1.81;90.21;101982.94;5072447;28;20836;-72
2021/01/10 08:52:08;;;;;;;0.70;0.70;;;;;;;1.85;90.07;101974.28;5072409;28;20481;-68
2021/01/10 08:54:34;;;;;;;0.40;0.40;;;;;;;1.89;89.42;101980.88;5071239;28;20812;-69
2021/01/10 08:57:01;;;;;;;0.40;0.30;;;;;;;1.84;89.54;101987.88;5072648;28;20821;-70
2021/01/10 08:59:36;;;;;;;0.40;0.30;;;;;;;1.88;89.50;101979.22;5072026;28;20504;-68
2021/01/10 09:02:06;;;;;;;0.40;0.30;;;;;;;1.88;89.54;101978.41;5072223;28;20484;-68
2021/01/10 09:04:38;;;;;;;2.30;0.63;;;;;;;1.94;88.97;101977.56;5072236;28;20484;-68
2021/01/10 09:07:07;;;;;;;0.40;0.30;;;;;;;1.99;89.14;101975.94;5071649;28;20455;-68
2021/01/10 09:09:43;;;;;;;0.40;0.30;;;;;;;2.04;89.11;101967.28;5072263;28;20986;-68
2021/01/10 09:12:18;;;;;;;2.63;0.97;;;;;;;2.10;89.01;101969.09;5072853;28;20520;-68
2021/01/10 09:14:50;;;;;;;0.50;0.47;;;;;;;2.14;88.61;101972.19;5072687;28;20502;-67
2021/01/10 09:17:24;;;;;;;11.53;1.13;;;;;;;2.20;88.30;101972.16;5072561;28;20473;-68
2021/01/10 09:19:53;;;;;;;0.43;0.27;;;;;;;2.20;88.85;101965.97;5072134;28;20525;-68
2021/01/10 09:22:19;;;;;;;0.50;0.40;;;;;;;2.24;89.48;101968.03;5072487;28;20531;-66
2021/01/10 09:24:46;;;;;;;0.50;0.50;;;;;;;2.25;89.82;101966.97;5072104;28;20587;-68
2021/01/10 09:27:13;;;;;;;0.40;0.30;;;;;;;2.31;88.48;101970.69;5072384;28;20976;-68
2021/01/10 09:29:40;;;;;;;0.70;0.67;;;;;;;2.34;88.49;101975.59;5072538;28;20465;-67
2021/01/10 09:32:08;;;;;;;0.83;0.83;;;;;;;2.33;87.83;101975.81;5072437;28;20451;-67
2021/01/10 09:34:34;;;;;;;0.40;0.30;;;;;;;2.37;87.15;101979.69;5072633;28;20502;-68
2021/01/10 09:37:02;;;;;;;0.50;0.50;;;;;;;2.35;86.34;101968.41;5072213;28;20829;-68
2021/01/10 09:39:43;;;;;;;0.40;0.20;;;;;;;2.27;86.66;101972.94;5076407;28;20501;-68
2021/01/10 09:42:09;;;;;;;0.40;0.30;;;;;;;2.16;84.69;101973.59;5076020;28;20453;-67
2021/01/10 09:44:36;;;;;;;1.37;1.27;;;;;;;2.11;86.06;101968.06;5076102;28;20527;-67
2021/01/10 09:47:03;;;;;;;0.40;0.30;;;;;;;2.12;85.42;101969.69;5076078;28;20452;-68
2021/01/10 09:49:30;;;;;;;0.40;0.30;;;;;;;2.09;85.39;101975.47;5076129;28;20473;-68
2021/01/10 09:51:58;;;;;;;0.40;0.33;;;;;;;2.15;85.90;101976.50;5076279;28;20580;-68
2021/01/10 09:54:25;;;;;;;0.40;0.30;;;;;;;2.25;86.17;101972.31;5076010;28;20476;-68
2021/01/10 09:56:51;;;;;;;0.40;0.30;;;;;;;2.25;86.03;101971.50;5075826;28;20573;-69
2021/01/10 09:59:41;;;;;;;0.40;0.30;;;;;;;2.30;86.46;101965.53;5074603;28;20470;-68
2021/01/10 10:02:09;;;;;;;0.40;0.30;;;;;;;2.30;86.38;101965.53;5063813;28;20973;-68
2021/01/10 10:04:36;;;;;;;0.70;0.60;;;;;;;2.32;86.49;101963.47;5075917;28;20488;-68
2021/01/10 10:07:03;;;;;;;0.40;0.30;;;;;;;2.44;86.45;101961.78;5075687;28;20459;-70
2021/01/10 10:09:51;;;;;;;0.70;0.70;;;;;;;2.41;86.19;101972.91;5075887;28;20487;-68
2021/01/10 10:12:18;;;;;;;1.23;1.13;;;;;;;2.42;86.25;101975.34;5056141;28;20475;-70
2021/01/10 10:14:55;;;;;;;0.40;0.30;;;;;;;2.39;86.63;101974.94;5072836;28;20449;-69
2021/01/10 10:17:23;;;;;;;0.40;0.30;;;;;;;2.40;86.36;101973.94;5075381;28;20454;-70
2021/01/10 10:19:50;;;;;;;0.40;0.30;;;;;;;2.33;85.50;101971.28;5074560;28;20519;-70
2021/01/10 10:22:21;;;;;;;0.40;0.30;;;;;;;2.39;86.49;101973.13;5075058;28;20453;-68
2021/01/10 10:24:47;;;;;;;0.40;0.30;;;;;;;2.28;84.90;101974.59;5075508;28;20487;-69
2021/01/10 10:27:13;;;;;;;0.70;0.50;;;;;;;2.25;84.68;101963.50;5075499;28;20821;-68
2021/01/10 10:29:39;;;;;;;0.70;0.70;;;;;;;2.24;84.49;101961.84;5074658;28;20522;-68
2021/01/10 10:32:06;;;;;;;1.70;1.07;;;;;;;2.25;85.05;101968.84;5075430;28;20444;-68
2021/01/10 10:34:33;;;;;;;0.40;0.30;;;;;;;2.24;84.92;101956.50;5075402;28;20526;-68
2021/01/10 10:37:00;;;;;;;2.00;1.90;;;;;;;2.34;84.67;101953.38;5075433;28;20446;-68
2021/01/10 10:39:26;;;;;;;0.40;0.30;;;;;;;2.45;84.01;101947.38;5074893;28;20465;-68
2021/01/10 10:41:52;;;;;;;0.90;0.40;;;;;;;2.45;84.17;101947.38;5075449;28;20448;-68
2021/01/10 10:44:19;;;;;;;0.40;0.33;;;;;;;2.62;83.63;101940.50;5074859;28;20478;-67
2021/01/10 10:46:45;;;;;;;0.40;0.30;;;;;;;2.67;83.27;101934.50;5075240;28;20478;-68
2021/01/10 10:49:12;;;;;;;0.40;0.30;;;;;;;2.54;84.95;101935.41;5072768;28;20503;-68
2021/01/10 10:51:38;;;;;;;0.40;0.30;;;;;;;2.59;83.91;101940.09;5074504;28;20483;-68
2021/01/10 10:54:05;;;;;;;0.40;0.30;;;;;;;2.59;83.44;101932.91;5075092;28;20448;-68
2021/01/10 10:56:36;;;;;;;0.40;0.30;;;;;;;2.64;83.75;101934.94;5075047;28;20480;-69
2021/01/10 10:59:03;;;;;;;0.60;0.50;;;;;;;2.68;83.74;101923.59;5075392;28;20441;-67
2021/01/10 11:01:40;;;;;;;0.40;0.30;;;;;;;2.85;83.84;101915.88;5075007;28;20451;-68
2021/01/10 11:04:06;;;;;;;0.60;0.50;;;;;;;2.84;83.62;101916.91;5074271;28;21008;-68
2021/01/10 11:06:33;;;;;;;0.40;0.30;;;;;;;2.77;83.23;101919.63;5057593;28;20853;-68
2021/01/10 11:08:59;;;;;;;0.50;0.40;;;;;;;2.91;83.18;101916.84;5064567;28;20935;-68
2021/01/10 11:11:35;;;;;;;0.40;0.27;;;;;;;3.00;82.82;101908.34;5074125;28;20455;-68
2021/01/10 11:14:01;;;;;;;0.40;0.30;;;;;;;3.13;82.50;101914.63;5074728;28;20440;-69
2021/01/10 11:16:32;;;;;;;0.50;0.50;;;;;;;3.31;82.23;101913.84;5074289;28;20947;-68
2021/01/10 11:18:59;;;;;;;0.40;0.30;;;;;;;3.35;81.07;101909.69;5074443;28;20939;-67
2021/01/10 11:21:30;;;;;;;0.40;0.30;;;;;;;3.32;81.16;101910.13;5074511;28;20814;-68
2021/01/10 11:23:57;;;;;;;0.97;0.97;;;;;;;3.17;80.83;101902.44;5074701;28;20481;-68
2021/01/10 11:26:24;;;;;;;0.40;0.30;;;;;;;3.07;81.42;101897.59;5074091;28;20449;-68
2021/01/10 11:28:51;;;;;;;6.80;1.17;;;;;;;3.04;82.28;101903.38;5074654;28;20817;-67
2021/01/10 11:31:18;;;;;;;0.50;0.50;;;;;;;3.07;83.02;101905.63;5074334;28;20464;-68
2021/01/10 11:33:45;;;;;;;0.40;0.30;;;;;;;3.38;83.12;101898.56;5074248;28;20950;-68
2021/01/10 11:36:12;;;;;;;0.70;0.60;;;;;;;3.79;82.43;101897.91;5074236;28;20449;-67
2021/01/10 11:38:39;;;;;;;0.40;0.30;;;;;;;3.94;81.91;101893.03;5073338;28;20456;-67
2021/01/10 11:41:07;;;;;;;0.40;0.30;;;;;;;3.94;78.91;101894.84;5072472;28;20461;-68